Data for 06/19/2007

Time Sea-Level Adjusted Pressure Absolute Pressure Temperature Relative Humidity Dew Point   
(mb) (inHg) (mb) (inHg) (C) (F) (%) (C) (F)
00:05 1019 30.09 848 25.04 9.4 49 68 3.8 38.9
00:10 1019 30.09 848 25.04 9.2 48.6 69 3.8 38.8
00:15 1019 30.09 848 25.04 9.1 48.4 69 3.7 38.7
00:20 1019 30.09 848 25.04 9.1 48.4 68 3.6 38.5
00:25 1019 30.09 848 25.04 9.1 48.3 68 3.5 38.3
00:30 1019 30.09 848 25.04 9 48.3 68 3.4 38.2
00:35 1019 30.09 848 25.04 9 48.2 68 3.4 38.1
00:40 1019 30.09 848 25.04 8.9 48 69 3.4 38.2
00:45 1019 30.09 848 25.04 8.7 47.6 70 3.4 38.2
00:50 1019 30.09 848 25.04 8.5 47.4 69 3.2 37.7
00:55 1019 30.09 848 25.04 8.7 47.7 68 3.3 37.9
01:00 1019 30.09 848 25.04 8.6 47.4 70 3.4 38
01:05 1019 30.09 848 25.04 8.4 47.2 69 3.1 37.6
01:10 1019 30.09 848 25.04 8.3 46.9 70 3.2 37.7
01:15 1019 30.09 849 25.07 8.2 46.8 69 3 37.4
01:20 1019 30.09 849 25.07 8.4 47 68 2.9 37.2
01:25 1019 30.09 849 25.07 8.2 46.8 69 3 37.4
01:30 1019 30.09 849 25.07 8.3 46.9 69 3 37.4
01:35 1020 30.12 849 25.07 8.4 47.1 69 3 37.4
01:40 1020 30.12 849 25.07 8.3 47 69 3 37.5
01:45 1020 30.12 849 25.07 8.1 46.6 69 2.9 37.2
01:50 1020 30.12 849 25.07 8.3 46.9 68 2.8 37
01:55 1020 30.12 849 25.07 8.3 46.9 69 2.9 37.2
02:00 1020 30.12 849 25.07 8.3 46.9 67 2.6 36.7
02:05 1020 30.12 849 25.07 8.5 47.2 65 2.4 36.2
02:10 1020 30.12 849 25.07 8.6 47.4 66 2.6 36.6
02:15 1020 30.12 849 25.07 8.4 47.2 66 2.5 36.5
02:20 1020 30.12 849 25.07 8.6 47.5 65 2.4 36.2
02:25 1020 30.12 849 25.07 8.9 48.1 62 2.2 35.9
02:30 1020 30.12 849 25.07 9 48.2 63 2.2 36
02:35 1020 30.12 849 25.07 9 48.3 62 2.2 36
02:40 1020 30.12 849 25.07 8.9 48.1 63 2.2 36
02:45 1020 30.12 849 25.07 9 48.2 62 2.2 36
02:50 1020 30.12 849 25.07 9 48.1 63 2.3 36.1
02:55 1020 30.12 849 25.07 8.9 48 63 2.2 36
03:00 1020 30.12 849 25.07 8.6 47.5 65 2.4 36.4
03:05 1020 30.12 849 25.07 8.2 46.8 67 2.4 36.4
03:10 1020 30.12 849 25.07 8 46.3 67 2.2 36
03:15 1020 30.12 849 25.07 8.1 46.6 66 2.1 35.8
03:20 1020 30.12 849 25.07 8.3 46.9 66 2.3 36.2
03:25 1020 30.12 849 25.07 8.1 46.6 66 2.1 35.8
03:30 1020 30.12 849 25.07 8.1 46.7 66 2.3 36.1
03:35 1020 30.12 849 25.07 7.9 46.3 66 2 35.6
03:40 1020 30.12 849 25.07 8.3 47 64 1.9 35.5
03:45 1020 30.12 849 25.07 8.6 47.4 63 1.9 35.4
03:50 1020 30.12 849 25.07 8.4 47.2 64 2.1 35.8
03:55 1020 30.12 849 25.07 8.4 47 63 1.8 35.2
04:00 1020 30.12 849 25.07 8.3 47 65 2.2 35.9
04:05 1020 30.12 849 25.07 8.1 46.6 66 2.1 35.7
04:10 1020 30.12 849 25.07 8.1 46.5 65 1.9 35.5
04:15 1020 30.12 849 25.07 8.1 46.5 66 2 35.6
04:20 1020 30.12 849 25.07 7.8 46 67 2.1 35.8
04:25 1020 30.12 849 25.07 7.5 45.5 68 2 35.6
04:30 1020 30.12 849 25.07 7.5 45.5 68 1.9 35.5
04:35 1020 30.12 849 25.07 7.5 45.4 68 2 35.6
04:40 1020 30.12 849 25.07 7.4 45.3 68 1.9 35.5
04:45 1020 30.12 849 25.07 7.2 44.9 70 2.1 35.9
04:50 1020 30.12 849 25.07 6.9 44.3 72 2.1 35.8
04:55 1020 30.12 849 25.07 6.7 44 72 2 35.7
05:00 1020 30.12 849 25.07 6.8 44.2 71 1.8 35.3
05:05 1020 30.12 849 25.07 6.9 44.3 71 1.9 35.5
05:10 1020 30.12 850 25.1 6.8 44.2 71 1.9 35.4
05:15 1020 30.12 850 25.1 6.9 44.5 71 2 35.5
05:20 1020 30.12 850 25.1 7 44.6 69 1.7 35.1
05:25 1020 30.12 850 25.1 7.3 45.1 68 1.8 35.2
05:30 1020 30.12 850 25.1 7.3 45.1 69 2 35.6
05:35 1020 30.12 850 25.1 7.2 44.9 69 2 35.5
05:40 1021 30.15 850 25.1 7 44.7 69 1.8 35.3
05:45 1021 30.15 850 25.1 7.1 44.8 69 1.9 35.5
05:50 1021 30.15 850 25.1 7 44.6 69 1.8 35.2
05:55 1021 30.15 850 25.1 7.2 45 69 1.8 35.3
06:00 1021 30.15 850 25.1 7.3 45.1 68 1.8 35.2
06:05 1021 30.15 850 25.1 7.5 45.6 66 1.7 35.1
06:10 1021 30.15 850 25.1 7.7 45.9 66 1.7 35.1
06:15 1021 30.15 850 25.1 7.8 46 67 2 35.5
06:20 1021 30.15 850 25.1 7.6 45.7 67 1.8 35.3
06:25 1021 30.15 850 25.1 7.8 46 67 2 35.5
06:30 1021 30.15 850 25.1 8.1 46.5 64 1.6 35
06:35 1021 30.15 850 25.1 8.1 46.6 67 2.3 36.2
06:40 1021 30.15 850 25.1 7.8 46.1 69 2.5 36.4
06:45 1021 30.15 850 25.1 8 46.3 69 2.6 36.7
06:50 1021 30.15 850 25.1 8.1 46.6 67 2.4 36.3
06:55 1021 30.15 850 25.1 8.5 47.2 66 2.5 36.5
07:00 1021 30.15 850 25.1 8.5 47.2 68 3 37.4
07:05 1021 30.15 850 25.1 8.5 47.3 67 2.8 37.1
07:10 1021 30.15 850 25.1 8.7 47.7 65 2.6 36.7
07:15 1021 30.15 850 25.1 9.2 48.5 63 2.4 36.4
07:20 1021 30.15 850 25.1 9.6 49.3 62 2.8 37
07:25 1021 30.15 850 25.1 9.8 49.6 63 3.1 37.6
07:30 1021 30.15 850 25.1 10.1 50.2 61 3 37.5
07:35 1021 30.15 850 25.1 10.5 51 59 2.9 37.3
07:40 1021 30.15 850 25.1 10.7 51.3 60 3.3 38
07:45 1021 30.15 850 25.1 11.4 52.4 58 3.5 38.4
07:50 1021 30.15 850 25.1 11.5 52.7 56 3 37.3
07:55 1021 30.15 850 25.1 11.5 52.6 57 3.2 37.8
08:00 1021 30.15 850 25.1 12 53.5 57 3.8 38.9
08:05 1021 30.15 850 25.1 12 53.5 59 4.2 39.5
08:10 1021 30.15 850 25.1 12.3 54.1 55 3.7 38.6
08:15 1021 30.15 850 25.1 13 55.4 51 3.1 37.6
08:20 1021 30.15 850 25.1 13.4 56.1 51 3.5 38.4
08:25 1021 30.15 850 25.1 13.8 56.8 48 2.9 37.2
08:30 1021 30.15 850 25.1 13.9 56.9 46 2.5 36.5
08:35 1021 30.15 850 25.1 14.3 57.7 44 2.2 35.9
08:40 1021 30.15 850 25.1 14.8 58.6 43 2.4 36.4
08:45 1021 30.15 850 25.1 15.2 59.3 43 2.6 36.7
08:50 1021 30.15 850 25.1 15.2 59.4 43 2.8 37
08:55 1021 30.15 850 25.1 15.5 59.8 42 2.6 36.7
09:00 1021 30.15 850 25.1 15.9 60.7 41 2.7 36.8
09:05 1021 30.15 850 25.1 16 60.8 40 2.4 36.4
09:10 1021 30.15 850 25.1 16.4 61.5 39 2.6 36.7
09:15 1021 30.15 850 25.1 16.8 62.2 39 2.8 37.1
09:20 1021 30.15 850 25.1 17.1 62.8 38 2.8 37.1
09:25 1021 30.15 850 25.1 17.6 63.8 36 2.7 36.8
09:30 1021 30.15 850 25.1 17.4 63.2 38 3.2 37.8
09:35 1021 30.15 850 25.1 16.8 62.2 39 2.9 37.2
09:40 1021 30.15 850 25.1 16.7 62.1 39 2.7 36.8
09:45 1021 30.15 850 25.1 17 62.6 38 2.9 37.2
09:50 1021 30.15 850 25.1 17.3 63.1 38 2.9 37.2
09:55 1021 30.15 850 25.1 17.5 63.5 38 3.1 37.5
10:00 1021 30.15 850 25.1 18 64.3 38 3.5 38.3
10:05 1021 30.15 850 25.1 17.2 63 40 3.5 38.3
10:10 1021 30.15 850 25.1 18.4 65.1 37 3.7 38.7
10:15 1021 30.15 850 25.1 17.8 64.1 41 4.4 39.9
10:20 1021 30.15 850 25.1 17.7 63.8 40 4.1 39.4
10:25 1021 30.15 850 25.1 17.2 62.9 39 3.3 37.9
10:30 1021 30.15 850 25.1 17.6 63.7 38 3.3 38
10:35 1021 30.15 850 25.1 17.7 63.8 39 3.8 38.8
10:40 1021 30.15 850 25.1 17.8 64.1 43 5.2 41.4
10:45 1021 30.15 850 25.1 18.9 66 39 4.7 40.5
10:50 1021 30.15 850 25.1 18.8 65.8 42 5.9 42.6
10:55 1021 30.15 850 25.1 19 66.2 41 5.7 42.2
11:00 1021 30.15 850 25.1 19 66.1 38 4.6 40.3
11:05 1021 30.15 850 25.1 19.6 67.2 35 3.9 39.1
11:10 1021 30.15 850 25.1 20.7 69.2 34 4.4 39.8
11:15 1021 30.15 850 25.1 20.1 68.1 35 4.3 39.8
11:20 1021 30.15 850 25.1 19.7 67.4 35 3.8 38.8
11:25 1021 30.15 850 25.1 19.8 67.6 36 4.3 39.7
11:30 1021 30.15 850 25.1 20.8 69.5 33 4.2 39.5
11:35 1021 30.15 850 25.1 20.8 69.4 32 3.6 38.5
11:40 1021 30.15 850 25.1 21.1 70 32 4 39.2
11:45 1021 30.15 850 25.1 21.7 71 31 4.2 39.6
11:50 1021 30.15 850 25.1 21.7 71.1 30 3.7 38.6
11:55 1021 30.15 850 25.1 21.6 70.8 30 3.5 38.3
12:00 1021 30.15 850 25.1 21 69.8 29 2.6 36.6
12:05 1021 30.15 850 25.1 20.7 69.2 30 2.8 37
12:10 1021 30.15 850 25.1 21 69.8 30 2.9 37.2
12:15 1021 30.15 850 25.1 20.2 68.4 30 2.2 36
12:20 1021 30.15 850 25.1 20.5 68.9 31 3 37.4
12:25 1021 30.15 850 25.1 21.4 70.5 31 3.6 38.5
12:30 1021 30.15 850 25.1 21.8 71.2 30 3.6 38.4
12:35 1021 30.15 850 25.1 22.7 72.9 27 2.8 37
12:40 1021 30.15 850 25.1 23.1 73.6 27 3.2 37.8
12:45 1021 30.15 850 25.1 22 71.5 30 3.9 38.9
12:50 1021 30.15 850 25.1 21.3 70.3 30 3 37.4
12:55 1021 30.15 850 25.1 21.5 70.7 28 2.5 36.5
13:00 1021 30.15 850 25.1 22.5 72.6 28 3.5 38.4
13:05 1021 30.15 850 25.1 23 73.4 27 3.2 37.8
13:10 1020 30.12 850 25.1 22.9 73.3 26 2.4 36.3
13:15 1021 30.15 850 25.1 22.5 72.6 27 2.8 37.1
13:20 1021 30.15 850 25.1 22.5 72.6 29 3.7 38.7
13:25 1020 30.12 850 25.1 23 73.5 26 2.8 37.1
13:30 1020 30.12 850 25.1 22.8 73 27 2.8 37.1
13:35 1020 30.12 850 25.1 22.9 73.1 26 2.7 36.8
13:40 1020 30.12 849 25.07 24 75.2 25 2.8 37
13:45 1020 30.12 849 25.07 23.4 74.1 27 3.5 38.3
13:50 1020 30.12 849 25.07 23.3 74 24 1.8 35.2
13:55 1020 30.12 849 25.07 22.8 73.1 25 1.9 35.4
14:00 1020 30.12 849 25.07 23.4 74.1 24 2 35.6
14:05 1020 30.12 849 25.07 23.8 74.8 25 2.5 36.5
14:10 1020 30.12 849 25.07 23.9 75.1 25 2.8 37
14:15 1020 30.12 849 25.07 24.9 76.8 22 1.7 35.1
14:20 1020 30.12 849 25.07 24.6 76.2 23 2.2 35.9
14:25 1020 30.12 849 25.07 24.6 76.3 22 1.6 34.8
14:30 1020 30.12 849 25.07 24.6 76.3 22 2 35.5
14:35 1020 30.12 849 25.07 23.9 75 23 1.9 35.4
14:40 1020 30.12 849 25.07 24 75.3 23 1.7 35.1
14:45 1020 30.12 849 25.07 24.4 75.9 24 2.6 36.6
14:50 1020 30.12 849 25.07 24.2 75.6 23 2.2 35.9
14:55 1020 30.12 849 25.07 24.7 76.4 23 2.6 36.6
15:00 1020 30.12 849 25.07 25.4 77.7 21 1.9 35.3
15:05 1020 30.12 849 25.07 25.4 77.8 22 2.2 35.9
15:10 1020 30.12 849 25.07 25.3 77.6 21 1.6 34.9
15:15 1020 30.12 849 25.07 26.3 79.3 18 0.5 32.9
15:20 1020 30.12 849 25.07 26.9 80.3 19 1.8 35.3
15:25 1020 30.12 849 25.07 26.8 80.2 19 1.8 35.2
15:30 1019 30.09 849 25.07 26.4 79.4 20 1.7 35.1
15:35 1019 30.09 849 25.07 26.3 79.3 18 0.7 33.3
15:40 1019 30.09 849 25.07 26.6 79.9 18 0.6 33.1
15:45 1019 30.09 848 25.04 25.6 78.1 21 1.9 35.4
15:50 1019 30.09 848 25.04 25.8 78.5 20 1.2 34.2
15:55 1019 30.09 848 25.04 26.1 78.9 20 1.8 35.2
16:00 1019 30.09 848 25.04 26.4 79.5 20 1.7 35.1
16:05 1019 30.09 848 25.04 26.2 79.1 20 1.7 35.1
16:10 1019 30.09 848 25.04 25.9 78.6 20 1.8 35.2
16:15 1019 30.09 848 25.04 26.8 80.3 18 1.1 34
16:20 1019 30.09 848 25.04 27 80.5 18 1.2 34.1
16:25 1019 30.09 848 25.04 27.4 81.3 19 2.1 35.7
16:30 1019 30.09 848 25.04 27.8 82.1 18 1.4 34.6
16:35 1019 30.09 848 25.04 27.5 81.5 18 1.5 34.7
16:40 1019 30.09 848 25.04 27.4 81.3 18 1 33.9
16:45 1019 30.09 848 25.04 27.4 81.3 18 1.4 34.5
16:50 1019 30.09 848 25.04 26.8 80.3 18 1.2 34.1
16:55 1019 30.09 848 25.04 26 78.8 18 0.2 32.3
17:00 1019 30.09 848 25.04 26.3 79.4 18 0.5 32.8
17:05 1019 30.09 848 25.04 27.2 80.9 18 1 33.8
17:10 1019 30.09 848 25.04 26.9 80.5 18 1.1 33.9
17:15 1019 30.09 848 25.04 26.1 78.9 19 1.3 34.3
17:20 1019 30.09 848 25.04 26.5 79.6 19 0.9 33.6
17:25 1019 30.09 848 25.04 27 80.6 18 1 33.7
17:30 1019 30.09 848 25.04 26.9 80.4 18 1.2 34.2
17:35 1019 30.09 848 25.04 26.1 78.9 19 1.2 34.1
17:40 1019 30.09 848 25.04 25.3 77.6 20 1.2 34.1
17:45 1019 30.09 848 25.04 25.4 77.7 21 1.9 35.5
17:50 1019 30.09 848 25.04 25.7 78.3 21 1.8 35.3
17:55 1019 30.09 848 25.04 26.8 80.2 19 1.8 35.2
18:00 1019 30.09 848 25.04 26.8 80.3 19 1.5 34.7
18:05 1019 30.09 848 25.04 27.1 80.8 20 2.2 36
18:10 1019 30.09 848 25.04 26.5 79.8 20 2.2 36
18:15 1019 30.09 848 25.04 26.6 79.8 20 2.2 36
18:20 1019 30.09 848 25.04 26.1 79.1 21 2.6 36.6
18:25 1019 30.09 848 25.04 26.4 79.5 20 1.7 35
18:30 1019 30.09 848 25.04 27.1 80.7 19 2.1 35.8
18:35 1019 30.09 848 25.04 27 80.7 20 2.6 36.6
18:40 1019 30.09 848 25.04 27 80.5 20 2.1 35.8
18:45 1019 30.09 848 25.04 26.5 79.6 20 2.3 36.2
18:50 1019 30.09 848 25.04 26 78.7 21 2.4 36.3
18:55 1019 30.09 848 25.04 26.4 79.5 20 1.9 35.5
19:00 1019 30.09 848 25.04 26.8 80.2 20 2.4 36.4
19:05 1019 30.09 848 25.04 26.8 80.2 20 2.3 36.2
19:10 1019 30.09 848 25.04 27.1 80.7 19 2 35.6
19:15 1019 30.09 848 25.04 26.8 80.2 21 2.7 36.9
19:20 1019 30.09 848 25.04 26.1 79.1 21 2.6 36.7
19:25 1019 30.09 848 25.04 25.8 78.4 24 4.1 39.4
19:30 1019 30.09 848 25.04 25.2 77.3 26 4.7 40.4
19:35 1018 30.06 848 25.04 24.8 76.6 27 4.7 40.5
19:40 1018 30.06 848 25.04 24.6 76.3 26 3.8 38.9
19:45 1018 30.06 848 25.04 24.4 75.9 26 3.8 38.9
19:50 1018 30.06 848 25.04 24.3 75.7 28 4.9 40.8
19:55 1018 30.06 848 25.04 24.3 75.8 28 4.7 40.4
20:00 1018 30.06 848 25.04 24.3 75.7 29 5.5 41.9
20:05 1018 30.06 848 25.04 24.3 75.7 28 4.9 40.7
20:10 1018 30.06 848 25.04 24.2 75.6 30 5.7 42.2
20:15 1018 30.06 848 25.04 24.2 75.5 29 5.1 41.2
20:20 1019 30.09 848 25.04 24.1 75.4 30 5.6 42.1
20:25 1019 30.09 848 25.04 24 75.1 29 5 41
20:30 1019 30.09 848 25.04 23.9 75 31 5.8 42.4
20:35 1019 30.09 848 25.04 23.8 74.8 30 5.4 41.8
20:40 1019 30.09 848 25.04 23.7 74.7 27 4 39.2
20:45 1019 30.09 848 25.04 23.5 74.4 33 6.4 43.5
20:50 1019 30.09 848 25.04 23.1 73.5 32 5.6 42.1
20:55 1019 30.09 848 25.04 22.8 73 34 6.4 43.5
21:00 1019 30.09 848 25.04 22.3 72.2 35 6.4 43.5
21:05 1019 30.09 848 25.04 21.9 71.3 38 6.9 44.4
21:10 1019 30.09 848 25.04 21.3 70.3 40 7.5 45.4
21:15 1019 30.09 848 25.04 20.8 69.4 40 6.7 44.1
21:20 1019 30.09 848 25.04 20.6 69 42 7.2 45
21:25 1019 30.09 848 25.04 20 68 46 8 46.5
21:30 1019 30.09 848 25.04 19.6 67.3 38 4.9 40.8
21:35 1019 30.09 848 25.04 20.1 68.1 33 3.4 38.1
21:40 1019 30.09 848 25.04 20.4 68.7 30 2.3 36.1
21:45 1019 30.09 848 25.04 20.6 69.1 28 1.5 34.8
21:50 1019 30.09 848 25.04 20.8 69.5 27 1.5 34.7
21:55 1019 30.09 848 25.04 20.9 69.6 26 1.1 34
22:00 1019 30.09 848 25.04 20.8 69.5 27 1.4 34.6
22:05 1019 30.09 848 25.04 20 68.1 32 3.1 37.5
22:10 1019 30.09 848 25.04 19.7 67.4 30 1.5 34.7
22:15 1019 30.09 848 25.04 20.3 68.5 30 2.1 35.9
22:20 1019 30.09 848 25.04 20.2 68.4 29 1.8 35.2
22:25 1019 30.09 848 25.04 20.3 68.6 30 2.2 36
22:30 1019 30.09 848 25.04 20.3 68.5 29 2 35.6
22:35 1019 30.09 848 25.04 20.1 68.3 30 2 35.6
22:40 1019 30.09 848 25.04 20 68 29 1.8 35.2
22:45 1019 30.09 848 25.04 20 68.1 29 1.8 35.2
22:50 1019 30.09 848 25.04 20.1 68.2 29 1.8 35.2
22:55 1019 30.09 848 25.04 20.2 68.4 29 1.9 35.4
23:00 1019 30.09 848 25.04 20.1 68.3 30 2.1 35.8
23:05 1019 30.09 848 25.04 20 67.9 30 2.2 35.9
23:10 1019 30.09 848 25.04 19.8 67.7 31 2.3 36.1
23:15 1019 30.09 848 25.04 19.5 67.1 33 3.1 37.5
23:20 1019 30.09 848 25.04 18.8 65.8 35 3.2 37.7
23:25 1019 30.09 848 25.04 18.4 65.1 36 3.2 37.7
23:30 1019 30.09 848 25.04 18.3 64.9 36 3 37.5
23:35 1019 30.09 848 25.04 18.3 64.9 36 3 37.4
23:40 1019 30.09 849 25.07 18 64.3 38 3.5 38.3
23:45 1019 30.09 849 25.07 17.9 64.2 39 3.8 38.9
23:50 1019 30.09 848 25.04 17.7 63.9 39 3.6 38.5
23:55 1019 30.09 848 25.04 17.7 63.8 43 5.1 41.3
24:00 1019 30.09 848 25.04 17.6 63.7 39 3.5 38.3